sensor_id;sensor_type;location;lat;lon;timestamp;temperature;humidity
21019;DHT22;10667;51.056;3.732;2022-11-13T00:01:16;11.50;99.90
21019;DHT22;10667;51.056;3.732;2022-11-13T00:03:42;11.40;99.90
21019;DHT22;10667;51.056;3.732;2022-11-13T00:06:10;11.50;99.90
21019;DHT22;10667;51.056;3.732;2022-11-13T00:08:35;11.40;99.90
21019;DHT22;10667;51.056;3.732;2022-11-13T00:11:12;11.40;99.90
21019;DHT22;10667;51.056;3.732;2022-11-13T00:13:39;11.40;99.90
21019;DHT22;10667;51.056;3.732;2022-11-13T00:16:08;11.30;99.90
21019;DHT22;10667;51.056;3.732;2022-11-13T00:18:35;11.30;99.90
21019;DHT22;10667;51.056;3.732;2022-11-13T00:21:06;11.30;99.90
21019;DHT22;10667;51.056;3.732;2022-11-13T00:23:32;11.40;99.90
21019;DHT22;10667;51.056;3.732;2022-11-13T00:26:14;11.40;99.90
21019;DHT22;10667;51.056;3.732;2022-11-13T00:28:40;11.40;99.90
21019;DHT22;10667;51.056;3.732;2022-11-13T00:31:07;11.40;99.90
21019;DHT22;10667;51.056;3.732;2022-11-13T00:33:33;11.40;99.90
21019;DHT22;10667;51.056;3.732;2022-11-13T00:36:05;11.40;99.90
21019;DHT22;10667;51.056;3.732;2022-11-13T00:38:31;11.50;99.90
21019;DHT22;10667;51.056;3.732;2022-11-13T00:40:58;11.50;99.90
21019;DHT22;10667;51.056;3.732;2022-11-13T00:43:23;11.40;99.90
21019;DHT22;10667;51.056;3.732;2022-11-13T00:45:49;11.40;99.90
21019;DHT22;10667;51.056;3.732;2022-11-13T00:48:15;11.40;99.90
21019;DHT22;10667;51.056;3.732;2022-11-13T00:50:41;11.30;99.90
21019;DHT22;10667;51.056;3.732;2022-11-13T00:53:07;11.30;99.90
21019;DHT22;10667;51.056;3.732;2022-11-13T00:55:32;11.30;99.90
21019;DHT22;10667;51.056;3.732;2022-11-13T00:57:58;11.20;99.90
21019;DHT22;10667;51.056;3.732;2022-11-13T01:00:24;11.20;99.90
21019;DHT22;10667;51.056;3.732;2022-11-13T01:02:50;11.20;99.90
21019;DHT22;10667;51.056;3.732;2022-11-13T01:05:15;11.20;99.90
21019;DHT22;10667;51.056;3.732;2022-11-13T01:07:41;11.10;99.90
21019;DHT22;10667;51.056;3.732;2022-11-13T01:10:07;11.20;99.90
21019;DHT22;10667;51.056;3.732;2022-11-13T01:12:33;11.10;99.90
21019;DHT22;10667;51.056;3.732;2022-11-13T01:14:59;11.10;99.90
21019;DHT22;10667;51.056;3.732;2022-11-13T01:17:25;11.10;99.90
21019;DHT22;10667;51.056;3.732;2022-11-13T01:19:51;11.10;99.90
21019;DHT22;10667;51.056;3.732;2022-11-13T01:22:17;11.20;99.90
21019;DHT22;10667;51.056;3.732;2022-11-13T01:24:43;11.20;99.90
21019;DHT22;10667;51.056;3.732;2022-11-13T01:27:08;11.20;99.90
21019;DHT22;10667;51.056;3.732;2022-11-13T01:29:36;11.20;99.90
21019;DHT22;10667;51.056;3.732;2022-11-13T01:32:02;11.20;99.90
21019;DHT22;10667;51.056;3.732;2022-11-13T01:34:27;11.10;99.90
21019;DHT22;10667;51.056;3.732;2022-11-13T01:36:53;11.10;99.90
21019;DHT22;10667;51.056;3.732;2022-11-13T01:39:19;11.10;99.90
21019;DHT22;10667;51.056;3.732;2022-11-13T01:41:44;11.10;99.90
21019;DHT22;10667;51.056;3.732;2022-11-13T01:44:13;11.10;99.90
21019;DHT22;10667;51.056;3.732;2022-11-13T01:46:45;11.10;99.90
21019;DHT22;10667;51.056;3.732;2022-11-13T01:51:48;11.00;99.90
21019;DHT22;10667;51.056;3.732;2022-11-13T01:54:21;11.00;99.90
21019;DHT22;10667;51.056;3.732;2022-11-13T01:56:48;10.90;99.90
21019;DHT22;10667;51.056;3.732;2022-11-13T01:59:20;10.90;99.90
21019;DHT22;10667;51.056;3.732;2022-11-13T02:01:46;10.90;99.90
21019;DHT22;10667;51.056;3.732;2022-11-13T02:04:12;10.90;99.90
21019;DHT22;10667;51.056;3.732;2022-11-13T02:07:05;10.90;99.90
21019;DHT22;10667;51.056;3.732;2022-11-13T02:09:39;10.90;99.90
21019;DHT22;10667;51.056;3.732;2022-11-13T02:12:07;10.80;99.90
21019;DHT22;10667;51.056;3.732;2022-11-13T02:14:35;10.80;99.90
21019;DHT22;10667;51.056;3.732;2022-11-13T02:17:05;10.70;99.90
21019;DHT22;10667;51.056;3.732;2022-11-13T02:19:34;10.70;99.90
21019;DHT22;10667;51.056;3.732;2022-11-13T02:22:23;10.70;99.90
21019;DHT22;10667;51.056;3.732;2022-11-13T02:24:50;10.70;99.90
21019;DHT22;10667;51.056;3.732;2022-11-13T02:27:41;10.70;99.90
21019;DHT22;10667;51.056;3.732;2022-11-13T02:32:46;10.70;99.90
21019;DHT22;10667;51.056;3.732;2022-11-13T02:35:14;10.70;99.90
21019;DHT22;10667;51.056;3.732;2022-11-13T02:37:40;10.70;99.90
21019;DHT22;10667;51.056;3.732;2022-11-13T02:40:07;10.60;99.90
21019;DHT22;10667;51.056;3.732;2022-11-13T02:42:33;10.60;99.90
21019;DHT22;10667;51.056;3.732;2022-11-13T02:44:58;10.50;99.90
21019;DHT22;10667;51.056;3.732;2022-11-13T02:47:25;10.60;99.90
21019;DHT22;10667;51.056;3.732;2022-11-13T02:49:51;10.60;99.90
21019;DHT22;10667;51.056;3.732;2022-11-13T02:52:17;10.50;99.90
21019;DHT22;10667;51.056;3.732;2022-11-13T02:54:43;10.50;99.90
21019;DHT22;10667;51.056;3.732;2022-11-13T02:57:08;10.50;99.90
21019;DHT22;10667;51.056;3.732;2022-11-13T02:59:34;10.50;99.90
21019;DHT22;10667;51.056;3.732;2022-11-13T03:01:59;10.50;99.90
21019;DHT22;10667;51.056;3.732;2022-11-13T03:04:25;10.50;99.90
21019;DHT22;10667;51.056;3.732;2022-11-13T03:06:51;10.40;99.90
21019;DHT22;10667;51.056;3.732;2022-11-13T03:09:16;10.40;99.90
21019;DHT22;10667;51.056;3.732;2022-11-13T03:11:43;10.40;99.90
21019;DHT22;10667;51.056;3.732;2022-11-13T03:14:09;10.40;99.90
21019;DHT22;10667;51.056;3.732;2022-11-13T03:16:35;10.40;99.90
21019;DHT22;10667;51.056;3.732;2022-11-13T03:19:01;10.40;99.90
21019;DHT22;10667;51.056;3.732;2022-11-13T03:21:27;10.40;99.90
21019;DHT22;10667;51.056;3.732;2022-11-13T03:23:53;10.40;99.90
21019;DHT22;10667;51.056;3.732;2022-11-13T03:26:19;10.40;99.90
21019;DHT22;10667;51.056;3.732;2022-11-13T03:28:45;10.40;99.90
21019;DHT22;10667;51.056;3.732;2022-11-13T03:31:11;10.40;99.90
21019;DHT22;10667;51.056;3.732;2022-11-13T03:33:37;10.40;99.90
21019;DHT22;10667;51.056;3.732;2022-11-13T03:36:03;10.40;99.90
21019;DHT22;10667;51.056;3.732;2022-11-13T03:38:29;10.40;99.90
21019;DHT22;10667;51.056;3.732;2022-11-13T03:40:55;10.40;99.90
21019;DHT22;10667;51.056;3.732;2022-11-13T03:43:22;10.40;99.90
21019;DHT22;10667;51.056;3.732;2022-11-13T03:45:48;10.40;99.90
21019;DHT22;10667;51.056;3.732;2022-11-13T03:48:14;10.30;99.90
21019;DHT22;10667;51.056;3.732;2022-11-13T03:50:46;10.30;99.90
21019;DHT22;10667;51.056;3.732;2022-11-13T03:53:12;10.30;99.90
21019;DHT22;10667;51.056;3.732;2022-11-13T03:55:38;10.20;99.90
21019;DHT22;10667;51.056;3.732;2022-11-13T03:58:04;10.20;99.90
21019;DHT22;10667;51.056;3.732;2022-11-13T04:00:30;10.10;99.90
21019;DHT22;10667;51.056;3.732;2022-11-13T04:02:56;10.10;99.90
21019;DHT22;10667;51.056;3.732;2022-11-13T04:05:22;10.10;99.90
21019;DHT22;10667;51.056;3.732;2022-11-13T04:07:47;10.10;99.90
21019;DHT22;10667;51.056;3.732;2022-11-13T04:10:13;10.10;99.90
21019;DHT22;10667;51.056;3.732;2022-11-13T04:12:39;10.10;99.90
21019;DHT22;10667;51.056;3.732;2022-11-13T04:15:06;10.10;99.90
21019;DHT22;10667;51.056;3.732;2022-11-13T04:17:32;10.10;99.90
21019;DHT22;10667;51.056;3.732;2022-11-13T04:19:58;10.10;99.90
21019;DHT22;10667;51.056;3.732;2022-11-13T04:22:23;10.10;99.90
21019;DHT22;10667;51.056;3.732;2022-11-13T04:24:49;10.10;99.90
21019;DHT22;10667;51.056;3.732;2022-11-13T04:27:15;10.20;99.90
21019;DHT22;10667;51.056;3.732;2022-11-13T04:29:40;10.20;99.90
21019;DHT22;10667;51.056;3.732;2022-11-13T04:32:06;10.10;99.90
21019;DHT22;10667;51.056;3.732;2022-11-13T04:34:32;10.10;99.90
21019;DHT22;10667;51.056;3.732;2022-11-13T04:36:58;10.10;99.90
21019;DHT22;10667;51.056;3.732;2022-11-13T04:39:23;10.00;99.90
21019;DHT22;10667;51.056;3.732;2022-11-13T04:41:49;10.00;99.90
21019;DHT22;10667;51.056;3.732;2022-11-13T04:44:33;10.00;99.90
21019;DHT22;10667;51.056;3.732;2022-11-13T04:46:59;10.00;99.90
21019;DHT22;10667;51.056;3.732;2022-11-13T04:49:25;10.00;99.90
21019;DHT22;10667;51.056;3.732;2022-11-13T04:51:50;10.00;99.90
21019;DHT22;10667;51.056;3.732;2022-11-13T04:54:16;9.90;99.90
21019;DHT22;10667;51.056;3.732;2022-11-13T04:56:41;9.90;99.90
21019;DHT22;10667;51.056;3.732;2022-11-13T04:59:07;9.90;99.90
21019;DHT22;10667;51.056;3.732;2022-11-13T05:01:34;9.90;99.90
21019;DHT22;10667;51.056;3.732;2022-11-13T05:04:01;9.90;99.90
21019;DHT22;10667;51.056;3.732;2022-11-13T05:06:26;9.80;99.90
21019;DHT22;10667;51.056;3.732;2022-11-13T05:08:52;9.70;99.90
21019;DHT22;10667;51.056;3.732;2022-11-13T05:11:18;9.60;99.90
21019;DHT22;10667;51.056;3.732;2022-11-13T05:13:44;9.50;99.90
21019;DHT22;10667;51.056;3.732;2022-11-13T05:16:11;9.40;99.90
21019;DHT22;10667;51.056;3.732;2022-11-13T05:18:38;9.50;99.90
21019;DHT22;10667;51.056;3.732;2022-11-13T05:21:05;9.40;99.90
21019;DHT22;10667;51.056;3.732;2022-11-13T05:23:31;9.30;99.90
21019;DHT22;10667;51.056;3.732;2022-11-13T05:26:09;9.20;99.90
21019;DHT22;10667;51.056;3.732;2022-11-13T05:28:35;9.10;99.90
21019;DHT22;10667;51.056;3.732;2022-11-13T05:33:28;9.10;99.90
21019;DHT22;10667;51.056;3.732;2022-11-13T05:35:54;9.10;99.90
21019;DHT22;10667;51.056;3.732;2022-11-13T05:38:19;8.90;99.90
21019;DHT22;10667;51.056;3.732;2022-11-13T05:40:45;8.80;99.90
21019;DHT22;10667;51.056;3.732;2022-11-13T05:43:11;8.90;99.90
21019;DHT22;10667;51.056;3.732;2022-11-13T05:45:36;8.90;99.90
21019;DHT22;10667;51.056;3.732;2022-11-13T05:48:02;9.00;99.90
21019;DHT22;10667;51.056;3.732;2022-11-13T05:50:28;9.00;99.90
21019;DHT22;10667;51.056;3.732;2022-11-13T05:52:53;9.20;99.90
21019;DHT22;10667;51.056;3.732;2022-11-13T05:55:19;9.30;99.90
21019;DHT22;10667;51.056;3.732;2022-11-13T05:57:45;9.40;99.90
21019;DHT22;10667;51.056;3.732;2022-11-13T06:00:11;9.50;99.90
21019;DHT22;10667;51.056;3.732;2022-11-13T06:02:37;9.60;99.90
21019;DHT22;10667;51.056;3.732;2022-11-13T06:05:02;9.60;99.90
21019;DHT22;10667;51.056;3.732;2022-11-13T06:07:28;9.50;99.90
21019;DHT22;10667;51.056;3.732;2022-11-13T06:09:54;9.40;99.90
21019;DHT22;10667;51.056;3.732;2022-11-13T06:12:19;9.30;99.90
21019;DHT22;10667;51.056;3.732;2022-11-13T06:14:45;9.20;99.90
21019;DHT22;10667;51.056;3.732;2022-11-13T06:17:10;9.20;99.90
21019;DHT22;10667;51.056;3.732;2022-11-13T06:19:36;9.20;99.90
21019;DHT22;10667;51.056;3.732;2022-11-13T06:22:02;9.20;99.90
21019;DHT22;10667;51.056;3.732;2022-11-13T06:24:27;9.20;99.90
21019;DHT22;10667;51.056;3.732;2022-11-13T06:26:53;9.20;99.90
21019;DHT22;10667;51.056;3.732;2022-11-13T06:29:19;9.20;99.90
21019;DHT22;10667;51.056;3.732;2022-11-13T06:31:44;9.10;99.90
21019;DHT22;10667;51.056;3.732;2022-11-13T06:34:10;9.20;99.90
21019;DHT22;10667;51.056;3.732;2022-11-13T06:36:36;9.20;99.90
21019;DHT22;10667;51.056;3.732;2022-11-13T06:39:05;9.20;99.90
21019;DHT22;10667;51.056;3.732;2022-11-13T06:41:32;9.20;99.90
21019;DHT22;10667;51.056;3.732;2022-11-13T06:43:58;9.20;99.90
21019;DHT22;10667;51.056;3.732;2022-11-13T06:46:27;9.20;99.90
21019;DHT22;10667;51.056;3.732;2022-11-13T06:48:53;9.20;99.90
21019;DHT22;10667;51.056;3.732;2022-11-13T06:51:22;9.20;99.90
21019;DHT22;10667;51.056;3.732;2022-11-13T06:53:48;9.10;99.90
21019;DHT22;10667;51.056;3.732;2022-11-13T06:56:15;9.20;99.90
21019;DHT22;10667;51.056;3.732;2022-11-13T06:58:41;9.20;99.90
21019;DHT22;10667;51.056;3.732;2022-11-13T07:01:13;9.30;99.90
21019;DHT22;10667;51.056;3.732;2022-11-13T07:03:40;9.30;99.90
21019;DHT22;10667;51.056;3.732;2022-11-13T07:06:08;9.30;99.90
21019;DHT22;10667;51.056;3.732;2022-11-13T07:08:35;9.30;99.90
21019;DHT22;10667;51.056;3.732;2022-11-13T07:11:00;9.30;99.90
21019;DHT22;10667;51.056;3.732;2022-11-13T07:13:27;9.30;99.90
21019;DHT22;10667;51.056;3.732;2022-11-13T07:15:53;9.30;99.90
21019;DHT22;10667;51.056;3.732;2022-11-13T07:18:19;9.30;99.90
21019;DHT22;10667;51.056;3.732;2022-11-13T07:20:47;9.20;99.90
21019;DHT22;10667;51.056;3.732;2022-11-13T07:23:13;9.30;99.90
21019;DHT22;10667;51.056;3.732;2022-11-13T07:25:38;9.30;99.90
21019;DHT22;10667;51.056;3.732;2022-11-13T07:28:04;9.40;99.90
21019;DHT22;10667;51.056;3.732;2022-11-13T07:30:30;9.40;99.90
21019;DHT22;10667;51.056;3.732;2022-11-13T07:33:00;9.40;99.90
21019;DHT22;10667;51.056;3.732;2022-11-13T07:35:25;9.40;99.90
21019;DHT22;10667;51.056;3.732;2022-11-13T07:37:54;9.50;99.90
21019;DHT22;10667;51.056;3.732;2022-11-13T07:40:20;9.50;99.90
21019;DHT22;10667;51.056;3.732;2022-11-13T07:42:46;9.40;99.90
21019;DHT22;10667;51.056;3.732;2022-11-13T07:45:11;9.50;99.90
21019;DHT22;10667;51.056;3.732;2022-11-13T07:47:37;9.50;99.90
21019;DHT22;10667;51.056;3.732;2022-11-13T07:50:03;9.50;99.90
21019;DHT22;10667;51.056;3.732;2022-11-13T07:52:29;9.50;99.90
21019;DHT22;10667;51.056;3.732;2022-11-13T07:54:55;9.50;99.90
21019;DHT22;10667;51.056;3.732;2022-11-13T07:57:20;9.50;99.90
21019;DHT22;10667;51.056;3.732;2022-11-13T07:59:47;9.50;99.90
21019;DHT22;10667;51.056;3.732;2022-11-13T08:02:14;9.50;99.90
21019;DHT22;10667;51.056;3.732;2022-11-13T08:04:40;9.60;99.90
21019;DHT22;10667;51.056;3.732;2022-11-13T08:07:07;9.60;99.90
21019;DHT22;10667;51.056;3.732;2022-11-13T08:09:33;9.70;99.90
21019;DHT22;10667;51.056;3.732;2022-11-13T08:11:58;9.70;99.90
21019;DHT22;10667;51.056;3.732;2022-11-13T08:14:24;9.80;99.90
21019;DHT22;10667;51.056;3.732;2022-11-13T08:16:49;9.90;99.90
21019;DHT22;10667;51.056;3.732;2022-11-13T08:19:15;9.80;99.90
21019;DHT22;10667;51.056;3.732;2022-11-13T08:21:41;9.70;99.90
21019;DHT22;10667;51.056;3.732;2022-11-13T08:24:08;9.80;99.90
21019;DHT22;10667;51.056;3.732;2022-11-13T08:26:36;9.80;99.90
21019;DHT22;10667;51.056;3.732;2022-11-13T08:29:03;9.80;99.90
21019;DHT22;10667;51.056;3.732;2022-11-13T08:31:29;9.80;99.90
21019;DHT22;10667;51.056;3.732;2022-11-13T08:33:55;9.70;99.90
21019;DHT22;10667;51.056;3.732;2022-11-13T08:36:20;9.70;99.90
21019;DHT22;10667;51.056;3.732;2022-11-13T08:38:47;9.70;99.90
21019;DHT22;10667;51.056;3.732;2022-11-13T08:41:13;9.70;99.90
21019;DHT22;10667;51.056;3.732;2022-11-13T08:43:39;9.80;99.90
21019;DHT22;10667;51.056;3.732;2022-11-13T08:46:05;9.90;99.90
21019;DHT22;10667;51.056;3.732;2022-11-13T08:48:30;9.90;99.90
21019;DHT22;10667;51.056;3.732;2022-11-13T08:50:56;10.00;99.90
21019;DHT22;10667;51.056;3.732;2022-11-13T08:53:24;10.00;99.90
21019;DHT22;10667;51.056;3.732;2022-11-13T08:55:50;10.00;99.90
21019;DHT22;10667;51.056;3.732;2022-11-13T08:58:15;10.00;99.90
21019;DHT22;10667;51.056;3.732;2022-11-13T09:00:41;10.10;99.90
21019;DHT22;10667;51.056;3.732;2022-11-13T09:03:08;10.10;99.90
21019;DHT22;10667;51.056;3.732;2022-11-13T09:05:36;10.10;99.90
21019;DHT22;10667;51.056;3.732;2022-11-13T09:08:02;10.10;99.90
21019;DHT22;10667;51.056;3.732;2022-11-13T09:10:28;10.10;99.90
21019;DHT22;10667;51.056;3.732;2022-11-13T09:12:57;10.10;99.90
21019;DHT22;10667;51.056;3.732;2022-11-13T09:15:24;10.10;99.90
21019;DHT22;10667;51.056;3.732;2022-11-13T09:17:49;10.10;99.90
21019;DHT22;10667;51.056;3.732;2022-11-13T09:20:15;10.10;99.90
21019;DHT22;10667;51.056;3.732;2022-11-13T09:22:41;10.00;99.90
21019;DHT22;10667;51.056;3.732;2022-11-13T09:25:07;9.90;99.90
21019;DHT22;10667;51.056;3.732;2022-11-13T09:27:33;9.90;99.90
21019;DHT22;10667;51.056;3.732;2022-11-13T09:29:58;9.90;99.90
21019;DHT22;10667;51.056;3.732;2022-11-13T09:32:24;9.90;99.90
21019;DHT22;10667;51.056;3.732;2022-11-13T09:34:50;9.90;99.90
21019;DHT22;10667;51.056;3.732;2022-11-13T09:37:16;9.90;99.90
21019;DHT22;10667;51.056;3.732;2022-11-13T09:39:41;9.90;99.90
21019;DHT22;10667;51.056;3.732;2022-11-13T09:42:14;10.00;99.90
21019;DHT22;10667;51.056;3.732;2022-11-13T09:44:46;9.90;99.90
21019;DHT22;10667;51.056;3.732;2022-11-13T09:47:25;10.00;99.90
21019;DHT22;10667;51.056;3.732;2022-11-13T09:50:00;10.00;99.90
21019;DHT22;10667;51.056;3.732;2022-11-13T09:52:32;9.90;99.90
21019;DHT22;10667;51.056;3.732;2022-11-13T09:54:59;9.90;99.90
21019;DHT22;10667;51.056;3.732;2022-11-13T10:00:14;9.90;99.90
21019;DHT22;10667;51.056;3.732;2022-11-13T10:05:55;10.00;99.90
21019;DHT22;10667;51.056;3.732;2022-11-13T10:09:10;10.10;99.90
21019;DHT22;10667;51.056;3.732;2022-11-13T10:16:55;10.40;99.90
21019;DHT22;10667;51.056;3.732;2022-11-13T10:19:36;10.40;99.90
21019;DHT22;10667;51.056;3.732;2022-11-13T10:22:15;10.50;99.90
21019;DHT22;10667;51.056;3.732;2022-11-13T10:24:43;10.60;99.90
21019;DHT22;10667;51.056;3.732;2022-11-13T10:27:11;10.70;99.90
21019;DHT22;10667;51.056;3.732;2022-11-13T10:29:38;10.80;99.90
21019;DHT22;10667;51.056;3.732;2022-11-13T10:32:20;10.80;99.90
21019;DHT22;10667;51.056;3.732;2022-11-13T10:34:57;10.90;99.90
21019;DHT22;10667;51.056;3.732;2022-11-13T10:37:33;10.90;99.90
21019;DHT22;10667;51.056;3.732;2022-11-13T10:40:04;10.90;99.90
21019;DHT22;10667;51.056;3.732;2022-11-13T10:42:38;10.90;99.90
21019;DHT22;10667;51.056;3.732;2022-11-13T10:45:16;11.10;99.90
21019;DHT22;10667;51.056;3.732;2022-11-13T10:47:48;11.10;99.90
21019;DHT22;10667;51.056;3.732;2022-11-13T10:50:25;11.20;99.90
21019;DHT22;10667;51.056;3.732;2022-11-13T10:52:53;11.30;99.90
21019;DHT22;10667;51.056;3.732;2022-11-13T10:55:37;11.20;99.90
21019;DHT22;10667;51.056;3.732;2022-11-13T10:58:14;11.40;99.90
21019;DHT22;10667;51.056;3.732;2022-11-13T11:00:41;11.50;99.90
21019;DHT22;10667;51.056;3.732;2022-11-13T11:03:20;11.50;99.90
21019;DHT22;10667;51.056;3.732;2022-11-13T11:05:56;11.60;99.90
21019;DHT22;10667;51.056;3.732;2022-11-13T11:08:32;11.70;99.90
21019;DHT22;10667;51.056;3.732;2022-11-13T11:11:01;11.80;99.90
21019;DHT22;10667;51.056;3.732;2022-11-13T11:13:47;11.80;99.90
21019;DHT22;10667;51.056;3.732;2022-11-13T11:16:18;11.80;99.90
21019;DHT22;10667;51.056;3.732;2022-11-13T11:18:58;11.70;99.90
21019;DHT22;10667;51.056;3.732;2022-11-13T11:21:28;11.80;99.90
21019;DHT22;10667;51.056;3.732;2022-11-13T11:29:27;11.90;99.90
21019;DHT22;10667;51.056;3.732;2022-11-13T11:31:59;12.00;99.90
21019;DHT22;10667;51.056;3.732;2022-11-13T11:34:46;12.10;99.90
21019;DHT22;10667;51.056;3.732;2022-11-13T11:37:15;12.20;99.90
21019;DHT22;10667;51.056;3.732;2022-11-13T11:39:54;12.40;99.90
21019;DHT22;10667;51.056;3.732;2022-11-13T11:42:46;12.30;99.90
21019;DHT22;10667;51.056;3.732;2022-11-13T11:45:28;12.50;99.90
21019;DHT22;10667;51.056;3.732;2022-11-13T11:47:56;12.70;99.90
21019;DHT22;10667;51.056;3.732;2022-11-13T11:56:30;12.90;99.90
21019;DHT22;10667;51.056;3.732;2022-11-13T12:07:40;13.30;99.90
21019;DHT22;10667;51.056;3.732;2022-11-13T12:12:59;13.40;99.90
21019;DHT22;10667;51.056;3.732;2022-11-13T12:15:48;13.50;99.90
21019;DHT22;10667;51.056;3.732;2022-11-13T12:20:51;13.60;99.90
21019;DHT22;10667;51.056;3.732;2022-11-13T12:26:14;13.90;99.90
21019;DHT22;10667;51.056;3.732;2022-11-13T12:28:58;14.00;99.90
21019;DHT22;10667;51.056;3.732;2022-11-13T12:31:42;14.00;99.90
21019;DHT22;10667;51.056;3.732;2022-11-13T12:34:37;14.00;99.90
21019;DHT22;10667;51.056;3.732;2022-11-13T12:37:15;14.10;99.90
21019;DHT22;10667;51.056;3.732;2022-11-13T12:40:04;14.10;99.90
21019;DHT22;10667;51.056;3.732;2022-11-13T12:42:34;14.30;99.90
21019;DHT22;10667;51.056;3.732;2022-11-13T12:45:10;14.30;99.90
21019;DHT22;10667;51.056;3.732;2022-11-13T12:47:38;14.40;99.90
21019;DHT22;10667;51.056;3.732;2022-11-13T12:50:28;14.50;99.90
21019;DHT22;10667;51.056;3.732;2022-11-13T12:53:08;14.50;99.90
21019;DHT22;10667;51.056;3.732;2022-11-13T12:55:39;14.70;99.90
21019;DHT22;10667;51.056;3.732;2022-11-13T12:58:24;14.70;99.90
21019;DHT22;10667;51.056;3.732;2022-11-13T13:00:55;14.70;99.90
21019;DHT22;10667;51.056;3.732;2022-11-13T13:06:10;14.80;99.90
21019;DHT22;10667;51.056;3.732;2022-11-13T13:08:48;14.70;99.90
21019;DHT22;10667;51.056;3.732;2022-11-13T13:16:27;14.70;99.90
21019;DHT22;10667;51.056;3.732;2022-11-13T13:19:06;14.60;99.90
21019;DHT22;10667;51.056;3.732;2022-11-13T13:21:43;14.60;99.90
21019;DHT22;10667;51.056;3.732;2022-11-13T13:24:28;14.70;99.90
21019;DHT22;10667;51.056;3.732;2022-11-13T13:26:54;14.60;99.90
21019;DHT22;10667;51.056;3.732;2022-11-13T13:29:22;14.60;99.90
21019;DHT22;10667;51.056;3.732;2022-11-13T13:48:18;14.70;99.90
21019;DHT22;10667;51.056;3.732;2022-11-13T13:50:46;14.70;99.90
21019;DHT22;10667;51.056;3.732;2022-11-13T13:53:16;14.70;99.90
21019;DHT22;10667;51.056;3.732;2022-11-13T13:55:48;14.80;99.90
21019;DHT22;10667;51.056;3.732;2022-11-13T13:58:18;14.70;99.90
21019;DHT22;10667;51.056;3.732;2022-11-13T14:01:04;14.60;99.90
21019;DHT22;10667;51.056;3.732;2022-11-13T14:03:30;14.70;99.90
21019;DHT22;10667;51.056;3.732;2022-11-13T14:06:07;14.70;99.90
21019;DHT22;10667;51.056;3.732;2022-11-13T14:08:33;14.70;99.90
21019;DHT22;10667;51.056;3.732;2022-11-13T14:11:02;14.70;99.90
21019;DHT22;10667;51.056;3.732;2022-11-13T14:13:28;14.70;99.90
21019;DHT22;10667;51.056;3.732;2022-11-13T14:16:02;14.80;99.90
21019;DHT22;10667;51.056;3.732;2022-11-13T14:18:29;14.70;99.90
21019;DHT22;10667;51.056;3.732;2022-11-13T14:20:57;14.60;99.90
21019;DHT22;10667;51.056;3.732;2022-11-13T14:23:36;14.70;99.90
21019;DHT22;10667;51.056;3.732;2022-11-13T14:26:05;14.70;99.90
21019;DHT22;10667;51.056;3.732;2022-11-13T14:29:03;14.70;99.90
21019;DHT22;10667;51.056;3.732;2022-11-13T14:31:30;14.80;99.90
21019;DHT22;10667;51.056;3.732;2022-11-13T14:34:07;14.80;99.90
21019;DHT22;10667;51.056;3.732;2022-11-13T14:36:34;14.80;99.90
21019;DHT22;10667;51.056;3.732;2022-11-13T14:39:02;14.80;99.90
21019;DHT22;10667;51.056;3.732;2022-11-13T14:41:50;14.90;99.90
21019;DHT22;10667;51.056;3.732;2022-11-13T14:44:30;14.80;99.90
21019;DHT22;10667;51.056;3.732;2022-11-13T14:47:05;14.80;99.90
21019;DHT22;10667;51.056;3.732;2022-11-13T14:49:33;14.90;99.90
21019;DHT22;10667;51.056;3.732;2022-11-13T14:51:59;14.80;99.90
21019;DHT22;10667;51.056;3.732;2022-11-13T14:54:32;14.80;99.90
21019;DHT22;10667;51.056;3.732;2022-11-13T14:57:16;14.90;99.90
21019;DHT22;10667;51.056;3.732;2022-11-13T14:59:42;14.80;99.90
21019;DHT22;10667;51.056;3.732;2022-11-13T15:02:10;14.80;99.90
21019;DHT22;10667;51.056;3.732;2022-11-13T15:04:36;14.80;99.90
21019;DHT22;10667;51.056;3.732;2022-11-13T15:07:18;14.80;99.90
21019;DHT22;10667;51.056;3.732;2022-11-13T15:09:44;14.80;99.90
21019;DHT22;10667;51.056;3.732;2022-11-13T15:12:11;14.80;99.90
21019;DHT22;10667;51.056;3.732;2022-11-13T15:14:38;14.80;99.90
21019;DHT22;10667;51.056;3.732;2022-11-13T15:17:09;14.70;99.90
21019;DHT22;10667;51.056;3.732;2022-11-13T15:19:38;14.70;99.90
21019;DHT22;10667;51.056;3.732;2022-11-13T15:22:09;14.70;99.90
21019;DHT22;10667;51.056;3.732;2022-11-13T15:24:35;14.80;99.90
21019;DHT22;10667;51.056;3.732;2022-11-13T15:27:01;14.80;99.90
21019;DHT22;10667;51.056;3.732;2022-11-13T15:29:26;14.70;99.90
21019;DHT22;10667;51.056;3.732;2022-11-13T15:31:52;14.70;99.90
21019;DHT22;10667;51.056;3.732;2022-11-13T15:34:19;14.60;99.90
21019;DHT22;10667;51.056;3.732;2022-11-13T15:36:44;14.50;99.90
21019;DHT22;10667;51.056;3.732;2022-11-13T15:39:11;14.40;99.90
21019;DHT22;10667;51.056;3.732;2022-11-13T15:41:37;14.40;99.90
21019;DHT22;10667;51.056;3.732;2022-11-13T15:44:10;14.30;99.90
21019;DHT22;10667;51.056;3.732;2022-11-13T15:46:37;14.30;99.90
21019;DHT22;10667;51.056;3.732;2022-11-13T15:49:02;14.20;99.90
21019;DHT22;10667;51.056;3.732;2022-11-13T15:51:30;14.20;99.90
21019;DHT22;10667;51.056;3.732;2022-11-13T15:54:11;14.10;99.90
21019;DHT22;10667;51.056;3.732;2022-11-13T15:56:38;14.10;99.90
21019;DHT22;10667;51.056;3.732;2022-11-13T15:59:04;14.00;99.90
21019;DHT22;10667;51.056;3.732;2022-11-13T16:01:30;14.00;99.90
21019;DHT22;10667;51.056;3.732;2022-11-13T16:03:55;13.90;99.90
21019;DHT22;10667;51.056;3.732;2022-11-13T16:06:27;13.90;99.90
21019;DHT22;10667;51.056;3.732;2022-11-13T16:08:54;13.80;99.90
21019;DHT22;10667;51.056;3.732;2022-11-13T16:11:20;13.70;99.90
21019;DHT22;10667;51.056;3.732;2022-11-13T16:13:46;13.70;99.90
21019;DHT22;10667;51.056;3.732;2022-11-13T16:16:16;13.60;99.90
21019;DHT22;10667;51.056;3.732;2022-11-13T16:18:42;13.60;99.90
21019;DHT22;10667;51.056;3.732;2022-11-13T16:21:12;13.60;99.90
21019;DHT22;10667;51.056;3.732;2022-11-13T16:23:38;13.60;99.90
21019;DHT22;10667;51.056;3.732;2022-11-13T16:26:05;13.60;99.90
21019;DHT22;10667;51.056;3.732;2022-11-13T16:28:30;13.50;99.90
21019;DHT22;10667;51.056;3.732;2022-11-13T16:30:56;13.50;99.90
21019;DHT22;10667;51.056;3.732;2022-11-13T16:33:22;13.50;99.90
21019;DHT22;10667;51.056;3.732;2022-11-13T16:35:48;13.40;99.90
21019;DHT22;10667;51.056;3.732;2022-11-13T16:38:14;13.40;99.90
21019;DHT22;10667;51.056;3.732;2022-11-13T16:40:39;13.30;99.90
21019;DHT22;10667;51.056;3.732;2022-11-13T16:43:08;13.30;99.90
21019;DHT22;10667;51.056;3.732;2022-11-13T16:45:36;13.30;99.90
21019;DHT22;10667;51.056;3.732;2022-11-13T16:48:03;13.30;99.90
21019;DHT22;10667;51.056;3.732;2022-11-13T16:50:31;13.40;99.90
21019;DHT22;10667;51.056;3.732;2022-11-13T16:52:57;13.40;99.90
21019;DHT22;10667;51.056;3.732;2022-11-13T16:55:23;13.50;99.90
21019;DHT22;10667;51.056;3.732;2022-11-13T16:57:49;13.50;99.90